createdAt,value
2022-08-14T00:01:23.881Z,18.57
2022-08-14T00:03:50.950Z,18.60
2022-08-14T00:06:28.869Z,18.53
2022-08-14T00:08:59.011Z,18.52
2022-08-14T00:11:28.688Z,18.56
2022-08-14T00:13:58.296Z,18.55
2022-08-14T00:16:41.380Z,18.54
2022-08-14T00:19:21.176Z,18.54
2022-08-14T00:21:51.997Z,18.47
2022-08-14T00:24:28.280Z,18.43
2022-08-14T00:27:02.304Z,18.41
2022-08-14T00:29:40.154Z,18.39
2022-08-14T00:32:53.088Z,18.37
2022-08-14T00:34:57.163Z,18.32
2022-08-14T00:37:24.208Z,18.30
2022-08-14T00:39:51.280Z,18.24
2022-08-14T00:42:55.075Z,18.25
2022-08-14T00:45:12.214Z,18.31
2022-08-14T00:47:45.327Z,18.33
2022-08-14T00:50:17.612Z,18.34
2022-08-14T00:52:52.208Z,18.37
2022-08-14T00:55:20.227Z,18.39
2022-08-14T00:58:08.035Z,18.42
2022-08-14T01:00:43.102Z,18.51
2022-08-14T01:03:19.385Z,18.56
2022-08-14T01:05:52.058Z,18.60
2022-08-14T01:08:51.626Z,18.68
2022-08-14T01:11:18.801Z,18.73
2022-08-14T01:13:46.120Z,18.79
2022-08-14T01:16:28.079Z,18.86
2022-08-14T01:19:16.143Z,18.92
2022-08-14T01:21:47.175Z,18.97
2022-08-14T01:24:24.685Z,19.02
2022-08-14T01:27:00.224Z,19.06
2022-08-14T01:29:58.201Z,19.09
2022-08-14T01:32:23.153Z,19.11
2022-08-14T01:35:20.626Z,19.12
2022-08-14T01:37:44.539Z,19.14
2022-08-14T01:40:15.488Z,19.18
2022-08-14T01:42:46.879Z,19.16
2022-08-14T01:45:17.911Z,19.15
2022-08-14T01:47:52.090Z,19.18
2022-08-14T01:50:30.832Z,19.20
2022-08-14T01:53:01.264Z,19.20
2022-08-14T01:55:32.235Z,19.23
2022-08-14T01:58:01.483Z,19.22
2022-08-14T02:00:47.879Z,19.34
2022-08-14T02:03:16.001Z,19.36
2022-08-14T02:05:42.584Z,19.47
2022-08-14T02:08:10.514Z,19.63
2022-08-14T02:10:46.617Z,19.71
2022-08-14T02:13:16.761Z,19.79
2022-08-14T02:15:44.516Z,19.94
2022-08-14T02:18:11.770Z,20.07
2022-08-14T02:20:41.764Z,20.07
2022-08-14T02:23:09.079Z,20.05
2022-08-14T02:25:36.575Z,20.03
2022-08-14T02:28:25.073Z,20.21
2022-08-14T02:30:52.344Z,20.18
2022-08-14T02:33:20.560Z,20.23
2022-08-14T02:35:53.517Z,20.17
2022-08-14T02:38:29.413Z,20.13
2022-08-14T02:41:00.512Z,20.17
2022-08-14T02:43:37.184Z,20.12
2022-08-14T02:46:12.981Z,20.12
2022-08-14T02:49:01.589Z,20.03
2022-08-14T02:51:30.305Z,20.16
2022-08-14T02:53:58.537Z,20.26
2022-08-14T02:56:30.728Z,20.16
2022-08-14T02:59:14.268Z,20.11
2022-08-14T03:01:43.402Z,20.10
2022-08-14T03:04:11.904Z,20.13
2022-08-14T03:06:57.192Z,20.12
2022-08-14T03:09:42.438Z,20.10
2022-08-14T03:12:17.832Z,20.06
2022-08-14T03:14:57.375Z,20.02
2022-08-14T03:17:24.532Z,19.97
2022-08-14T03:19:52.455Z,19.99
2022-08-14T03:22:19.172Z,19.96
2022-08-14T03:24:45.870Z,20.03
2022-08-14T03:27:13.977Z,20.17
2022-08-14T03:29:40.883Z,20.22
2022-08-14T03:32:08.271Z,20.11
2022-08-14T03:34:53.050Z,20.11
2022-08-14T03:37:51.459Z,20.05
2022-08-14T03:40:12.177Z,20.11
2022-08-14T03:42:44.862Z,20.10
2022-08-14T03:45:26.174Z,20.09
2022-08-14T03:48:01.949Z,20.07
2022-08-14T03:50:31.645Z,20.06
2022-08-14T03:53:02.770Z,20.14
2022-08-14T03:55:30.821Z,20.17
2022-08-14T03:57:58.211Z,20.14
2022-08-14T04:00:43.869Z,20.16
2022-08-14T04:03:18.052Z,20.15
2022-08-14T04:05:48.807Z,20.20
2022-08-14T04:08:29.126Z,20.29
2022-08-14T04:10:57.672Z,20.34
2022-08-14T04:13:24.998Z,20.27
2022-08-14T04:16:00.998Z,20.30
2022-08-14T04:18:29.833Z,20.43
2022-08-14T04:20:58.104Z,20.35
2022-08-14T04:23:32.809Z,20.40
2022-08-14T04:26:08.232Z,20.38
2022-08-14T04:29:01.945Z,20.38
2022-08-14T04:31:25.108Z,20.46
2022-08-14T04:34:20.859Z,20.42
2022-08-14T04:37:12.495Z,20.45
2022-08-14T04:39:58.881Z,20.49
2022-08-14T04:42:47.173Z,20.51
2022-08-14T04:45:23.628Z,20.58
2022-08-14T04:48:10.352Z,20.66
2022-08-14T04:50:44.829Z,20.87
2022-08-14T04:53:17.028Z,21.07
2022-08-14T04:55:51.662Z,21.05
2022-08-14T04:58:21.487Z,21.23
2022-08-14T05:00:59.086Z,21.33
2022-08-14T05:03:31.886Z,21.29
2022-08-14T05:06:03.016Z,21.39
2022-08-14T05:08:32.304Z,21.38
2022-08-14T05:11:19.343Z,21.60
2022-08-14T05:14:43.411Z,21.67
2022-08-14T05:16:33.702Z,21.57
2022-08-14T05:19:18.109Z,21.58
2022-08-14T05:21:58.293Z,21.79
2022-08-14T05:24:27.848Z,21.72
2022-08-14T05:26:54.623Z,21.77
2022-08-14T05:29:22.128Z,21.68
2022-08-14T05:31:48.913Z,21.59
2022-08-14T05:34:17.388Z,21.56
2022-08-14T05:36:50.749Z,21.65
2022-08-14T05:39:29.485Z,21.70
2022-08-14T05:41:56.727Z,21.81
2022-08-14T05:44:27.894Z,22.24
2022-08-14T05:46:57.313Z,22.54
2022-08-14T05:49:25.980Z,22.71
2022-08-14T05:51:59.846Z,22.69
2022-08-14T05:54:30.651Z,22.73
2022-08-14T05:57:04.586Z,22.87
2022-08-14T05:59:38.807Z,23.20
2022-08-14T06:02:11.202Z,23.44
2022-08-14T06:04:39.236Z,23.66
2022-08-14T06:07:06.607Z,23.93
2022-08-14T06:09:35.389Z,24.01
2022-08-14T06:12:08.369Z,24.02
2022-08-14T06:14:35.689Z,23.74
2022-08-14T06:17:04.378Z,23.62
2022-08-14T06:19:31.313Z,23.46
2022-08-14T06:21:58.222Z,23.50
2022-08-14T06:24:26.803Z,23.51
2022-08-14T06:26:56.632Z,23.61
2022-08-14T06:29:23.805Z,23.68
2022-08-14T06:31:54.539Z,23.64
2022-08-14T06:35:03.395Z,23.50
2022-08-14T06:37:13.456Z,23.50
2022-08-14T06:39:44.446Z,23.50
2022-08-14T06:42:18.429Z,23.43
2022-08-14T06:44:58.601Z,23.51
2022-08-14T06:47:26.018Z,23.62
2022-08-14T06:49:55.978Z,23.44
2022-08-14T06:52:24.740Z,23.39
2022-08-14T06:54:51.557Z,23.36
2022-08-14T06:57:18.953Z,23.00
2022-08-14T06:59:48.389Z,22.94
2022-08-14T07:02:35.975Z,22.59
2022-08-14T07:05:23.404Z,22.51
2022-08-14T07:07:50.878Z,22.41
2022-08-14T07:10:17.775Z,22.32
2022-08-14T07:13:01.104Z,22.20
2022-08-14T07:15:29.097Z,22.22
2022-08-14T07:17:55.999Z,22.06
2022-08-14T07:20:31.427Z,22.04
2022-08-14T07:23:07.781Z,22.17
2022-08-14T07:25:37.766Z,22.08
2022-08-14T07:28:13.002Z,21.97
2022-08-14T07:30:51.402Z,21.97
2022-08-14T07:33:24.413Z,21.91
2022-08-14T07:35:58.354Z,21.92
2022-08-14T07:38:32.121Z,21.88
2022-08-14T07:41:03.053Z,21.97
2022-08-14T07:43:33.635Z,22.10
2022-08-14T07:46:00.921Z,22.20
2022-08-14T07:48:29.814Z,22.37
2022-08-14T07:51:03.157Z,22.31
2022-08-14T07:53:40.431Z,22.48
2022-08-14T07:56:21.409Z,22.48
2022-08-14T07:58:51.807Z,22.50
2022-08-14T08:01:19.184Z,22.50
2022-08-14T08:03:51.947Z,22.52
2022-08-14T08:06:26.249Z,22.44
2022-08-14T08:09:01.404Z,22.60
2022-08-14T08:11:35.031Z,22.67
2022-08-14T08:14:10.791Z,22.90
2022-08-14T08:16:51.142Z,23.26
2022-08-14T08:19:19.371Z,23.75
2022-08-14T08:21:47.044Z,24.06
2022-08-14T08:24:18.420Z,24.42
2022-08-14T08:26:47.113Z,24.61
2022-08-14T08:29:20.161Z,25.03
2022-08-14T08:31:55.116Z,24.96
2022-08-14T08:34:24.184Z,25.20
2022-08-14T08:36:51.581Z,25.61
2022-08-14T08:39:22.472Z,25.83
2022-08-14T08:41:53.425Z,25.96
2022-08-14T08:44:31.949Z,26.15
2022-08-14T08:47:05.643Z,26.36
2022-08-14T08:49:48.815Z,26.64
2022-08-14T08:52:31.380Z,26.56
2022-08-14T08:55:00.748Z,26.61
2022-08-14T08:57:35.314Z,26.80
2022-08-14T09:00:02.454Z,27.30
2022-08-14T09:02:36.628Z,26.92
2022-08-14T09:05:03.886Z,27.14
2022-08-14T09:07:31.410Z,27.34
2022-08-14T09:09:59.988Z,26.80
2022-08-14T09:12:32.352Z,27.37
2022-08-14T09:15:12.077Z,27.43
2022-08-14T09:17:41.656Z,27.36
2022-08-14T09:20:11.596Z,27.40
2022-08-14T09:22:47.295Z,27.56
2022-08-14T09:25:16.062Z,27.47
2022-08-14T09:27:42.940Z,27.47
2022-08-14T09:30:12.923Z,27.46
2022-08-14T09:33:09.055Z,27.85
2022-08-14T09:36:10.124Z,27.61
2022-08-14T09:39:02.194Z,27.77
2022-08-14T09:42:17.806Z,28.07
2022-08-14T09:44:45.663Z,28.19
2022-08-14T09:47:14.640Z,28.26
2022-08-14T09:49:42.815Z,28.35
2022-08-14T09:52:33.055Z,28.95
2022-08-14T09:55:00.343Z,28.86
2022-08-14T09:57:33.431Z,28.98
2022-08-14T10:00:11.984Z,29.17
2022-08-14T10:03:05.094Z,28.99
2022-08-14T10:05:37.842Z,28.94
2022-08-14T10:08:17.698Z,29.41
2022-08-14T10:10:57.262Z,29.50
2022-08-14T10:13:43.139Z,29.39
2022-08-14T10:16:25.974Z,29.81
2022-08-14T10:19:09.311Z,30.17
2022-08-14T10:21:38.995Z,30.57
2022-08-14T10:24:36.087Z,30.34
2022-08-14T10:27:03.854Z,30.56
2022-08-14T10:29:40.989Z,30.76
2022-08-14T10:32:18.002Z,31.06
2022-08-14T10:35:05.448Z,31.07
2022-08-14T10:37:38.820Z,30.96
2022-08-14T10:40:36.872Z,30.83
2022-08-14T10:42:54.545Z,30.69
2022-08-14T10:45:35.445Z,31.06
2022-08-14T10:48:30.796Z,30.86
2022-08-14T10:51:03.510Z,30.57
2022-08-14T10:53:39.258Z,30.70
2022-08-14T10:56:21.890Z,31.40
2022-08-14T10:59:06.899Z,31.08
2022-08-14T11:01:38.496Z,31.23
2022-08-14T11:04:25.320Z,30.95
2022-08-14T11:06:53.891Z,31.05
2022-08-14T11:09:20.502Z,30.69
2022-08-14T11:11:56.430Z,30.70
2022-08-14T11:14:51.041Z,30.55
2022-08-14T11:17:31.806Z,30.81
2022-08-14T11:20:01.119Z,31.12
2022-08-14T11:23:02.887Z,31.19
2022-08-14T11:25:18.278Z,31.28
2022-08-14T11:27:46.234Z,31.61
2022-08-14T11:30:51.188Z,30.80
2022-08-14T11:33:09.369Z,30.54
2022-08-14T11:35:47.742Z,30.16
2022-08-14T11:38:17.227Z,29.69
2022-08-14T11:40:46.688Z,29.30
2022-08-14T11:43:14.721Z,28.94
2022-08-14T11:45:48.661Z,28.77
2022-08-14T11:49:02.853Z,28.96
2022-08-14T11:51:17.907Z,28.99
2022-08-14T11:53:51.423Z,29.05
2022-08-14T11:56:18.785Z,29.44
2022-08-14T11:58:53.957Z,29.98
2022-08-14T12:01:29.392Z,30.27
2022-08-14T12:04:09.318Z,30.10
2022-08-14T12:06:56.386Z,29.66
2022-08-14T12:09:34.050Z,29.61
2022-08-14T12:12:01.980Z,29.32
2022-08-14T12:14:34.745Z,29.24
2022-08-14T12:17:09.403Z,29.28
2022-08-14T12:19:51.203Z,29.19
2022-08-14T12:22:36.223Z,28.82
2022-08-14T12:25:11.387Z,28.54
2022-08-14T12:27:53.108Z,28.58
2022-08-14T12:30:43.798Z,28.30
2022-08-14T12:33:31.034Z,28.16
2022-08-14T12:36:05.464Z,28.14
2022-08-14T12:38:38.382Z,28.45
2022-08-14T12:41:11.135Z,28.97
2022-08-14T12:43:56.455Z,29.17
2022-08-14T12:46:35.188Z,29.46
2022-08-14T12:49:09.581Z,29.46
2022-08-14T12:51:37.665Z,29.63
2022-08-14T12:54:19.422Z,29.42
2022-08-14T12:57:09.181Z,29.60
2022-08-14T12:59:42.568Z,29.77
2022-08-14T13:02:22.198Z,29.91
2022-08-14T13:04:58.031Z,29.85
2022-08-14T13:07:32.698Z,30.06
2022-08-14T13:10:00.347Z,30.32
2022-08-14T13:12:32.043Z,29.84
2022-08-14T13:15:09.250Z,29.62
2022-08-14T13:17:44.052Z,29.12
2022-08-14T13:20:23.250Z,28.80
2022-08-14T13:22:52.844Z,28.65
2022-08-14T13:25:24.615Z,29.25
2022-08-14T13:27:55.126Z,29.31
2022-08-14T13:30:24.947Z,29.59
2022-08-14T13:32:58.382Z,30.04
2022-08-14T13:35:25.778Z,30.07
2022-08-14T13:37:53.675Z,30.25
2022-08-14T13:40:26.677Z,30.78
2022-08-14T13:42:57.060Z,31.38
2022-08-14T13:45:59.978Z,31.10
2022-08-14T13:48:27.417Z,31.31
2022-08-14T13:51:04.529Z,31.20
2022-08-14T13:53:34.992Z,30.90
2022-08-14T13:56:05.386Z,31.03
2022-08-14T13:58:35.586Z,30.70
2022-08-14T14:01:04.554Z,30.00
2022-08-14T14:03:35.228Z,29.72
2022-08-14T14:06:03.598Z,29.64
2022-08-14T14:08:45.618Z,29.84
2022-08-14T14:11:24.110Z,30.11
2022-08-14T14:13:55.359Z,30.31
2022-08-14T14:16:30.301Z,30.21
2022-08-14T14:19:06.904Z,30.53
2022-08-14T14:21:36.277Z,30.63
2022-08-14T14:24:04.821Z,30.60
2022-08-14T14:26:33.327Z,30.51
2022-08-14T14:29:04.410Z,30.38
2022-08-14T14:31:32.359Z,30.49
2022-08-14T14:34:12.407Z,30.61
2022-08-14T14:36:52.451Z,30.63
2022-08-14T14:39:22.256Z,30.39
2022-08-14T14:41:56.055Z,30.57
2022-08-14T14:44:25.521Z,30.11
2022-08-14T14:46:53.957Z,30.19
2022-08-14T14:49:22.199Z,30.43
2022-08-14T14:51:58.805Z,30.17
2022-08-14T14:54:31.520Z,30.12
2022-08-14T14:57:09.302Z,30.31
2022-08-14T14:59:37.288Z,30.38
2022-08-14T15:02:08.100Z,29.98
2022-08-14T15:04:37.811Z,30.04
2022-08-14T15:07:05.801Z,30.07
2022-08-14T15:09:33.982Z,30.29
2022-08-14T15:12:00.816Z,30.21
2022-08-14T15:14:55.224Z,29.89
2022-08-14T15:17:20.984Z,29.90
2022-08-14T15:19:56.163Z,29.82
2022-08-14T15:22:25.304Z,30.09
2022-08-14T15:24:52.090Z,30.06
2022-08-14T15:27:21.402Z,29.96
2022-08-14T15:29:53.635Z,29.89
2022-08-14T15:32:23.173Z,29.92
2022-08-14T15:34:51.475Z,29.95
2022-08-14T15:37:22.766Z,30.29
2022-08-14T15:39:52.618Z,30.57
2022-08-14T15:42:23.008Z,30.80
2022-08-14T15:44:57.830Z,30.92
2022-08-14T15:47:30.651Z,30.88
2022-08-14T15:50:02.956Z,30.63
2022-08-14T15:52:35.342Z,30.69
2022-08-14T15:55:08.518Z,30.72
2022-08-14T15:57:36.552Z,30.58
2022-08-14T16:00:43.907Z,30.44
2022-08-14T16:03:14.301Z,29.85
2022-08-14T16:05:43.622Z,29.57
2022-08-14T16:08:24.333Z,29.61
2022-08-14T16:10:57.651Z,29.56
2022-08-14T16:13:39.163Z,29.11
2022-08-14T16:16:46.949Z,28.85
2022-08-14T16:18:58.222Z,28.76
2022-08-14T16:21:29.624Z,28.66
2022-08-14T16:24:00.049Z,28.37
2022-08-14T16:26:29.395Z,28.24
2022-08-14T16:29:05.448Z,28.14
2022-08-14T16:31:36.077Z,27.87
2022-08-14T16:34:46.057Z,27.87
2022-08-14T16:36:51.371Z,27.82
2022-08-14T16:39:18.236Z,27.65
2022-08-14T16:41:45.686Z,27.55
2022-08-14T16:44:22.081Z,27.46
2022-08-14T16:47:02.654Z,27.26
2022-08-14T16:50:03.283Z,27.15
2022-08-14T16:52:25.990Z,27.06
2022-08-14T16:55:07.886Z,27.00
2022-08-14T16:57:35.139Z,26.98
2022-08-14T17:00:07.153Z,27.00
2022-08-14T17:02:46.525Z,26.93
2022-08-14T17:05:25.159Z,26.91
2022-08-14T17:08:28.332Z,26.81
2022-08-14T17:10:51.568Z,26.79
2022-08-14T17:13:27.009Z,26.57
2022-08-14T17:16:24.948Z,26.37
2022-08-14T17:19:03.826Z,26.20
2022-08-14T17:21:41.552Z,26.11
2022-08-14T17:27:00.148Z,25.91
2022-08-14T17:29:33.278Z,25.81
2022-08-14T17:32:29.280Z,25.62
2022-08-14T17:34:55.404Z,25.36
2022-08-14T17:37:34.203Z,25.27
2022-08-14T17:40:18.013Z,25.12
2022-08-14T17:42:51.311Z,25.04
2022-08-14T17:45:41.582Z,24.89
2022-08-14T17:49:10.690Z,24.73
2022-08-14T17:51:23.374Z,24.59
2022-08-14T17:54:01.227Z,24.49
2022-08-14T17:56:31.877Z,24.36
2022-08-14T17:59:06.242Z,24.16
2022-08-14T18:01:38.788Z,24.03
2022-08-14T18:04:24.980Z,23.88
2022-08-14T18:07:06.043Z,23.66
2022-08-14T18:09:57.460Z,23.49
2022-08-14T18:12:32.398Z,23.41
2022-08-14T18:15:16.091Z,23.20
2022-08-14T18:17:52.712Z,23.06
2022-08-14T18:21:24.177Z,22.95
2022-08-14T18:23:08.504Z,22.84
2022-08-14T18:25:51.864Z,22.75
2022-08-14T18:28:51.241Z,22.67
2022-08-14T18:31:43.612Z,22.45
2022-08-14T18:34:12.240Z,22.38
2022-08-14T18:36:57.777Z,22.27
2022-08-14T18:39:34.806Z,22.18
2022-08-14T18:42:23.341Z,22.10
2022-08-14T18:44:50.711Z,22.01
2022-08-14T18:47:20.211Z,21.95
2022-08-14T18:49:53.155Z,21.89
2022-08-14T18:52:29.658Z,21.86
2022-08-14T18:54:59.525Z,21.80
2022-08-14T18:57:27.157Z,21.73
2022-08-14T19:00:43.191Z,21.66
2022-08-14T19:03:18.062Z,21.59
2022-08-14T19:05:49.330Z,21.51
2022-08-14T19:08:18.667Z,21.44
2022-08-14T19:10:57.382Z,21.40
2022-08-14T19:13:48.153Z,21.33
2022-08-14T19:16:22.862Z,21.27
2022-08-14T19:19:01.931Z,21.21
2022-08-14T19:21:39.947Z,21.14
2022-08-14T19:24:29.320Z,21.08
2022-08-14T19:27:24.530Z,21.08
2022-08-14T19:30:19.862Z,20.98
2022-08-14T19:32:53.055Z,20.85
2022-08-14T19:35:55.279Z,20.82
2022-08-14T19:38:44.414Z,20.76
2022-08-14T19:41:16.171Z,20.71
2022-08-14T19:43:50.658Z,20.68
2022-08-14T19:46:38.792Z,20.59
2022-08-14T19:49:12.383Z,20.48
2022-08-14T19:51:43.813Z,20.43
2022-08-14T19:54:13.769Z,20.36
2022-08-14T19:56:46.082Z,20.32
2022-08-14T19:59:19.289Z,20.29
2022-08-14T20:01:50.499Z,20.26
2022-08-14T20:04:47.715Z,20.19
2022-08-14T20:07:27.309Z,20.13
2022-08-14T20:11:05.558Z,20.06
2022-08-14T20:13:32.520Z,20.05
2022-08-14T20:16:11.971Z,20.01
2022-08-14T20:18:50.830Z,19.97
2022-08-14T20:21:18.577Z,19.93
2022-08-14T20:23:47.837Z,19.92
2022-08-14T20:26:30.486Z,19.89
2022-08-14T20:29:06.984Z,19.87
2022-08-14T20:31:37.579Z,19.83
2022-08-14T20:34:18.728Z,19.79
2022-08-14T20:37:11.717Z,19.73
2022-08-14T20:39:43.722Z,19.67
2022-08-14T20:42:32.500Z,19.61
2022-08-14T20:45:18.002Z,19.54
2022-08-14T20:48:07.452Z,19.45
2022-08-14T20:50:36.749Z,19.44
2022-08-14T20:53:35.462Z,19.42
2022-08-14T20:56:28.976Z,19.40
2022-08-14T20:58:53.741Z,19.29
2022-08-14T21:01:20.313Z,19.25
2022-08-14T21:03:57.212Z,19.26
2022-08-14T21:07:22.715Z,19.20
2022-08-14T21:10:05.535Z,19.13
2022-08-14T21:12:34.938Z,19.10
2022-08-14T21:15:10.032Z,19.09
2022-08-14T21:17:38.309Z,19.01
2022-08-14T21:20:25.466Z,18.97
2022-08-14T21:22:54.169Z,18.91
2022-08-14T21:25:23.322Z,18.88
2022-08-14T21:27:57.225Z,18.84
2022-08-14T21:30:46.674Z,18.80
2022-08-14T21:33:13.084Z,18.74
2022-08-14T21:35:45.628Z,18.72
2022-08-14T21:38:17.936Z,18.67
2022-08-14T21:40:48.120Z,18.66
2022-08-14T21:43:19.610Z,18.62
2022-08-14T21:45:53.472Z,18.63
2022-08-14T21:48:26.549Z,18.57
2022-08-14T21:51:02.030Z,18.49
2022-08-14T21:53:59.098Z,18.46
2022-08-14T21:56:38.926Z,18.38
2022-08-14T21:59:17.862Z,18.38
2022-08-14T22:02:00.903Z,18.39
2022-08-14T22:04:40.338Z,18.34
2022-08-14T22:07:10.270Z,18.28
2022-08-14T22:09:37.163Z,18.28
2022-08-14T22:12:08.339Z,18.27
2022-08-14T22:14:43.650Z,18.27
2022-08-14T22:17:17.231Z,18.27
2022-08-14T22:19:54.520Z,18.30
2022-08-14T22:22:23.952Z,18.33
2022-08-14T22:24:59.745Z,18.38
2022-08-14T22:27:32.235Z,18.40
2022-08-14T22:30:00.146Z,18.44
2022-08-14T22:32:56.973Z,18.49
2022-08-14T22:35:14.097Z,18.51
2022-08-14T22:37:44.448Z,18.54
2022-08-14T22:40:46.674Z,18.56
2022-08-14T22:43:07.985Z,18.55
2022-08-14T22:45:36.424Z,18.56
2022-08-14T22:48:10.869Z,18.59
2022-08-14T22:50:48.933Z,18.60
2022-08-14T22:53:20.372Z,18.63
2022-08-14T22:55:46.998Z,18.62
2022-08-14T22:58:17.119Z,18.68
2022-08-14T23:00:45.362Z,18.70
2022-08-14T23:03:17.551Z,18.71
2022-08-14T23:05:51.698Z,18.74
2022-08-14T23:09:01.545Z,18.74
2022-08-14T23:11:10.206Z,18.74
2022-08-14T23:13:43.394Z,18.76
2022-08-14T23:16:10.964Z,18.77
2022-08-14T23:18:47.984Z,18.78
2022-08-14T23:21:24.361Z,18.77
2022-08-14T23:23:55.009Z,18.77
2022-08-14T23:26:48.966Z,18.73
2022-08-14T23:29:11.353Z,18.70
2022-08-14T23:31:39.355Z,18.62
2022-08-14T23:34:10.004Z,18.60
2022-08-14T23:36:54.310Z,18.51
2022-08-14T23:39:29.494Z,18.43
2022-08-14T23:42:02.329Z,18.38
2022-08-14T23:44:34.889Z,18.30
2022-08-14T23:47:03.254Z,18.24
2022-08-14T23:49:56.908Z,18.18
2022-08-14T23:52:55.558Z,18.12
2022-08-14T23:55:11.285Z,18.11
2022-08-14T23:57:44.108Z,18.07
